CheckWX is a tool to help pilots better visualize weather data.  It is not intended as a substitute for an official pre-flight weather briefing.

08:16:00 UTC

KISW METAR
Alexander Field South Wood County Airport
Wisconsin Rapids, Wisconsin, USA
Current

22 mins ago

KISW 220754Z AUTO 00000KT 6SM HZ CLR M15/M19 A3037 RMK AO2 SLP306 T11501189 TSNO
Observed
Feb-22 @ 07:54 UTC
Visibility
6 SM
Flight Rules
VFR
Conditions
Haze
Cloud Levels
  • Clear skies
Temperature
-15°C / 5°F
Dewpoint
-19°C / -2°F
Humidity
72%
Altimeter
30.37" Hg
Pressure
1030.6 hPa
Previous

1 hour ago

KISW 220654Z AUTO 00000KT 6SM HZ CLR M14/M18 A3035 RMK AO2 SLP301 T11441178 TSNO
Observed
Feb-22 @ 06:54 UTC
Visibility
6 SM
Flight Rules
VFR
Conditions
Haze
Cloud Levels
  • Clear skies
Temperature
-14°C / 7°F
Dewpoint
-18°C / -0°F
Humidity
72%
Altimeter
30.35" Hg
Pressure
1030.1 hPa
Previous

2 hours ago

KISW 220554Z AUTO 00000KT 5SM HZ CLR M15/M18 A3033 RMK AO2 SLP295 I6001 T11501183 11067 21150 410331150 51021 TSNO
Observed
Feb-22 @ 05:54 UTC
Visibility
5 SM
Flight Rules
MVFR
Conditions
Haze
Cloud Levels
  • Clear skies
Temperature
-15°C / 5°F
Dewpoint
-18°C / -0°F
Humidity
78%
Altimeter
30.33" Hg
Pressure
1029.5 hPa